Lihue, HI

7:55 PM HST on August 21, 2014 (GMT -1000)
Lihue | Change Station
CLOSE
Current Station
Airport
Location: Lihue,
Elevation: 102 ft
Nearby Weather Stations
Active Advisory: High Surf Advisory

Elev 102 ft 21.98 °N, 159.34 °W | Updated 28 minutes ago

Mostly Cloudy
Mostly Cloudy
79 °F
Feels Like 79 °F
N
12
Wind Variable Wind from NE

Today
High -- | Low -- °F
--% Chance of Precip.
Yesterday
High -- | Low -- °F
Precip. -- in
6:17 AM 7:03 PM
Waning Crescent, 10% visible
Pressure 30.03 in
Visibility 10.0 miles
Clouds Mostly Cloudy 2200 ft
Dew Point 72 °F
Humidity 78%
Rainfall 0.00 in
Snow Depth Not available.
UV 0 out of 12
Pollen Not available.
Air Quality Not available.
Flu Activity Not available.
SPECI PHLI 220527Z 05010KT 10SM BKN022 26/22 A3003 RMK AO2

More Conditions Fewer Conditions

Pressure 30.03 in
Visibility 10.0 miles
Clouds Mostly Cloudy 2200 ft
Dew Point 72 °F
Humidity 78%
Rainfall 0.00 in
Snow Depth Not available.
UV 0 out of 12
Pollen Not available.
Air Quality Not available.
Flu Activity Not available.
SPECI PHLI 220527Z 05010KT 10SM BKN022 26/22 A3003 RMK AO2

More Conditions Fewer Conditions

10-Day Weather Forecast

Almanac

Astronomy

Aug. 21, 2014 Rise Set
Actual Time 6:17 AM HST 7:03 PM HST
Civil Twilight 5:54 AM HST 7:26 PM HST
Nautical Twilight 5:27 AM HST 7:53 PM HST
Astronomical Twilight 4:59 AM HST 8:20 PM HST
Moon 3:08 AM HST (8/21) 4:30 PM HST (8/21)
Length of Visible Light 13h 32m
Length of Day
12h 46m
Tomorrow will be 1m 10s shorter.
Waning Crescent, 10% of the Moon is Illuminated
Aug 22
Waning Crescent
Aug 25
New
Sep 2
First Quarter
Sep 8
Full
Sep 15
Last Quarter

Yesterday's Extremes

State Highs State Lows

Community

WunderPhotos

Upload Photos

1,746,131 photos uploaded!

Nearby

Snow Depth

Station Depth Elevation
No new snow has been reported.

Earthquake Activity

City Distance Mag. Time & Date
No recent earthquake activity has been reported nearby.
Minimum magnitude displayed is 2.5.

Coastal Water Temperatures

Place Temperature
No Stations Reporting

Nearby Weather Stations